createdAt,value
2023-01-21T00:01:12.648Z,100.00
2023-01-21T00:03:40.807Z,100.00
2023-01-21T00:06:08.516Z,100.00
2023-01-21T00:08:36.264Z,100.00
2023-01-21T00:11:08.307Z,100.00
2023-01-21T00:13:36.468Z,100.00
2023-01-21T00:16:05.110Z,100.00
2023-01-21T00:18:33.420Z,100.00
2023-01-21T00:21:01.284Z,100.00
2023-01-21T00:23:28.999Z,100.00
2023-01-21T00:26:04.797Z,100.00
2023-01-21T00:28:34.130Z,100.00
2023-01-21T00:31:03.578Z,100.00
2023-01-21T00:33:32.088Z,100.00
2023-01-21T00:36:04.601Z,100.00
2023-01-21T00:38:32.873Z,100.00
2023-01-21T00:41:08.926Z,100.00
2023-01-21T00:43:37.200Z,100.00
2023-01-21T00:46:04.802Z,100.00
2023-01-21T00:48:32.542Z,100.00
2023-01-21T00:51:01.071Z,100.00
2023-01-21T00:53:30.481Z,100.00
2023-01-21T00:56:12.788Z,100.00
2023-01-21T00:58:43.433Z,100.00
2023-01-21T01:01:16.960Z,100.00
2023-01-21T01:03:45.351Z,100.00
2023-01-21T01:06:16.310Z,100.00
2023-01-21T01:08:44.765Z,100.00
2023-01-21T01:11:13.304Z,100.00
2023-01-21T01:13:41.384Z,100.00
2023-01-21T01:16:10.884Z,100.00
2023-01-21T01:18:38.796Z,100.00
2023-01-21T01:21:06.506Z,100.00
2023-01-21T01:23:34.093Z,100.00
2023-01-21T01:26:02.641Z,100.00
2023-01-21T01:28:31.447Z,100.00
2023-01-21T01:30:59.959Z,100.00
2023-01-21T01:33:27.994Z,100.00
2023-01-21T01:35:55.539Z,100.00
2023-01-21T01:38:23.307Z,100.00
2023-01-21T01:40:52.648Z,100.00
2023-01-21T01:43:26.381Z,100.00
2023-01-21T01:45:54.788Z,100.00
2023-01-21T01:48:32.165Z,100.00
2023-01-21T01:51:04.378Z,100.00
2023-01-21T01:53:32.548Z,100.00
2023-01-21T01:56:00.693Z,100.00
2023-01-21T01:58:30.856Z,100.00
2023-01-21T02:00:59.755Z,100.00
2023-01-21T02:03:46.153Z,100.00
2023-01-21T02:06:15.311Z,100.00
2023-01-21T02:08:47.717Z,100.00
2023-01-21T02:11:17.273Z,100.00
2023-01-21T02:13:53.293Z,100.00
2023-01-21T02:16:42.728Z,100.00
2023-01-21T02:19:28.642Z,100.00
2023-01-21T02:22:31.275Z,100.00
2023-01-21T02:25:28.953Z,100.00
2023-01-21T02:28:16.798Z,100.00
2023-01-21T02:30:59.406Z,100.00
2023-01-21T02:33:46.297Z,100.00
2023-01-21T02:36:41.811Z,100.00
2023-01-21T02:39:57.333Z,100.00
2023-01-21T02:42:46.578Z,100.00
2023-01-21T02:45:29.762Z,100.00
2023-01-21T02:48:11.232Z,100.00
2023-01-21T02:50:44.793Z,100.00
2023-01-21T02:53:30.135Z,100.00
2023-01-21T02:56:01.884Z,100.00
2023-01-21T02:58:36.896Z,100.00
2023-01-21T03:01:26.652Z,100.00
2023-01-21T03:04:21.988Z,100.00
2023-01-21T03:07:16.426Z,100.00
2023-01-21T03:09:44.168Z,100.00
2023-01-21T03:12:29.723Z,100.00
2023-01-21T03:15:49.610Z,100.00
2023-01-21T03:18:40.478Z,100.00
2023-01-21T03:21:13.979Z,100.00
2023-01-21T03:23:46.087Z,100.00
2023-01-21T03:26:19.469Z,100.00
2023-01-21T03:28:52.489Z,100.00
2023-01-21T03:31:26.063Z,100.00
2023-01-21T03:34:00.348Z,100.00
2023-01-21T03:36:53.499Z,100.00
2023-01-21T03:39:27.277Z,100.00
2023-01-21T03:41:55.209Z,100.00
2023-01-21T03:44:22.774Z,100.00
2023-01-21T03:47:15.845Z,100.00
2023-01-21T03:50:07.440Z,100.00
2023-01-21T03:52:35.708Z,100.00
2023-01-21T03:55:03.296Z,100.00
2023-01-21T03:57:30.831Z,100.00
2023-01-21T03:59:58.171Z,100.00
2023-01-21T04:02:25.616Z,100.00
2023-01-21T04:04:53.422Z,100.00
2023-01-21T04:07:20.903Z,100.00
2023-01-21T04:09:49.850Z,100.00
2023-01-21T04:12:18.067Z,100.00
2023-01-21T04:14:45.508Z,100.00
2023-01-21T04:17:13.308Z,100.00
2023-01-21T04:19:40.701Z,100.00
2023-01-21T04:22:08.105Z,100.00
2023-01-21T04:24:35.681Z,100.00
2023-01-21T04:27:03.085Z,100.00
2023-01-21T04:29:30.322Z,100.00
2023-01-21T04:31:57.753Z,100.00
2023-01-21T04:34:24.992Z,100.00
2023-01-21T04:36:52.363Z,100.00
2023-01-21T04:39:19.745Z,100.00
2023-01-21T04:41:47.839Z,100.00
2023-01-21T04:44:15.223Z,100.00
2023-01-21T04:46:42.709Z,100.00
2023-01-21T04:49:10.150Z,100.00
2023-01-21T04:51:37.533Z,100.00
2023-01-21T04:54:04.837Z,100.00
2023-01-21T04:56:32.228Z,100.00
2023-01-21T04:58:59.469Z,100.00
2023-01-21T05:01:26.864Z,100.00
2023-01-21T05:03:54.310Z,100.00
2023-01-21T05:06:21.754Z,100.00
2023-01-21T05:08:49.186Z,100.00
2023-01-21T05:11:19.208Z,100.00
2023-01-21T05:13:46.988Z,100.00
2023-01-21T05:16:14.691Z,100.00
2023-01-21T05:18:44.007Z,100.00
2023-01-21T05:21:13.174Z,100.00
2023-01-21T05:23:40.612Z,100.00
2023-01-21T05:26:08.047Z,100.00
2023-01-21T05:28:35.262Z,100.00
2023-01-21T05:31:03.396Z,100.00
2023-01-21T05:33:35.180Z,100.00
2023-01-21T05:36:03.926Z,100.00
2023-01-21T05:38:31.660Z,100.00
2023-01-21T05:41:00.533Z,100.00
2023-01-21T05:43:28.391Z,100.00
2023-01-21T05:45:56.483Z,100.00
2023-01-21T05:48:24.573Z,100.00
2023-01-21T05:50:52.263Z,100.00
2023-01-21T05:53:19.798Z,100.00
2023-01-21T05:55:52.392Z,100.00
2023-01-21T05:58:20.415Z,100.00
2023-01-21T06:00:48.683Z,100.00
2023-01-21T06:03:17.934Z,100.00
2023-01-21T06:05:46.987Z,100.00
2023-01-21T06:08:14.451Z,100.00
2023-01-21T06:10:41.920Z,100.00
2023-01-21T06:13:11.455Z,100.00
2023-01-21T06:15:38.827Z,100.00
2023-01-21T06:18:07.155Z,100.00
2023-01-21T06:20:34.728Z,100.00
2023-01-21T06:23:03.733Z,100.00
2023-01-21T06:25:32.649Z,100.00
2023-01-21T06:28:01.287Z,100.00
2023-01-21T06:30:28.804Z,100.00
2023-01-21T06:32:56.187Z,100.00
2023-01-21T06:35:23.789Z,100.00
2023-01-21T06:37:51.228Z,100.00
2023-01-21T06:40:18.965Z,100.00
2023-01-21T06:42:47.937Z,100.00
2023-01-21T06:45:16.285Z,100.00
2023-01-21T06:47:45.303Z,100.00
2023-01-21T06:50:15.816Z,100.00
2023-01-21T06:52:46.016Z,100.00
2023-01-21T06:55:14.330Z,100.00
2023-01-21T06:57:43.615Z,100.00
2023-01-21T07:00:12.342Z,100.00
2023-01-21T07:02:39.989Z,100.00
2023-01-21T07:05:08.206Z,100.00
2023-01-21T07:07:36.031Z,100.00
2023-01-21T07:10:04.300Z,100.00
2023-01-21T07:12:31.951Z,100.00
2023-01-21T07:14:59.393Z,100.00
2023-01-21T07:17:26.966Z,100.00
2023-01-21T07:19:54.230Z,100.00
2023-01-21T07:22:21.558Z,100.00
2023-01-21T07:24:48.898Z,100.00
2023-01-21T07:27:16.488Z,100.00
2023-01-21T07:29:44.033Z,100.00
2023-01-21T07:32:11.542Z,100.00
2023-01-21T07:34:38.838Z,100.00
2023-01-21T07:37:06.224Z,100.00
2023-01-21T07:39:33.545Z,100.00
2023-01-21T07:42:00.834Z,100.00
2023-01-21T07:44:28.227Z,100.00
2023-01-21T07:46:55.670Z,100.00
2023-01-21T07:49:22.916Z,100.00
2023-01-21T07:51:50.307Z,100.00
2023-01-21T07:54:17.587Z,100.00
2023-01-21T07:56:44.996Z,100.00
2023-01-21T07:59:17.757Z,100.00
2023-01-21T08:01:45.288Z,100.00
2023-01-21T08:04:12.588Z,100.00
2023-01-21T08:06:41.547Z,100.00
2023-01-21T08:09:10.016Z,100.00
2023-01-21T08:11:37.658Z,100.00
2023-01-21T08:14:05.705Z,100.00
2023-01-21T08:16:33.306Z,100.00
2023-01-21T08:19:00.609Z,100.00
2023-01-21T08:21:28.176Z,100.00
2023-01-21T08:23:55.789Z,100.00
2023-01-21T08:26:25.592Z,100.00
2023-01-21T08:28:56.357Z,97.84
2023-01-21T08:31:23.940Z,92.69
2023-01-21T08:33:51.373Z,86.30
2023-01-21T08:36:18.639Z,82.98
2023-01-21T08:38:48.555Z,78.85
2023-01-21T08:41:17.884Z,75.74
2023-01-21T08:43:45.454Z,72.33
2023-01-21T08:46:13.563Z,69.65
2023-01-21T08:48:40.966Z,67.95
2023-01-21T08:51:08.480Z,67.78
2023-01-21T08:53:36.203Z,67.60
2023-01-21T08:56:05.035Z,67.92
2023-01-21T08:58:33.287Z,67.74
2023-01-21T09:01:08.079Z,68.86
2023-01-21T09:03:35.783Z,68.55
2023-01-21T09:06:05.285Z,68.02
2023-01-21T09:08:33.051Z,67.51
2023-01-21T09:11:01.802Z,67.45
2023-01-21T09:13:37.734Z,67.11
2023-01-21T09:16:11.521Z,67.20
2023-01-21T09:18:39.938Z,66.73
2023-01-21T09:21:07.962Z,66.38
2023-01-21T09:23:38.038Z,66.64
2023-01-21T09:26:16.188Z,66.51
2023-01-21T09:28:47.073Z,66.15
2023-01-21T09:31:16.919Z,66.79
2023-01-21T09:33:48.100Z,68.21
2023-01-21T09:36:21.489Z,71.82
2023-01-21T09:38:50.085Z,73.50
2023-01-21T09:41:33.669Z,75.08
2023-01-21T09:44:33.969Z,76.50
2023-01-21T09:47:24.785Z,76.56
2023-01-21T09:50:22.991Z,77.37
2023-01-21T09:52:53.612Z,81.95
2023-01-21T09:55:29.312Z,83.04
2023-01-21T09:57:59.645Z,83.04
2023-01-21T10:00:35.836Z,86.15
2023-01-21T10:03:09.751Z,87.06
2023-01-21T10:06:02.018Z,87.11
2023-01-21T10:09:14.455Z,88.75
2023-01-21T10:12:12.639Z,86.81
2023-01-21T10:14:52.744Z,85.84
2023-01-21T10:17:39.599Z,86.87
2023-01-21T10:20:25.147Z,87.29
2023-01-21T10:23:17.241Z,88.56
2023-01-21T10:25:49.280Z,88.38
2023-01-21T10:28:25.429Z,86.70
2023-01-21T10:31:02.996Z,87.41
2023-01-21T10:33:33.785Z,86.57
2023-01-21T10:36:19.919Z,85.87
2023-01-21T10:38:59.672Z,84.48
2023-01-21T10:41:52.199Z,84.07
2023-01-21T10:44:31.368Z,83.61
2023-01-21T10:47:17.667Z,82.08
2023-01-21T10:49:51.095Z,82.95
2023-01-21T10:52:45.380Z,79.03
2023-01-21T10:55:43.824Z,76.33
2023-01-21T10:58:33.084Z,76.39
2023-01-21T11:01:05.483Z,72.19
2023-01-21T11:03:39.091Z,71.04
2023-01-21T11:06:09.341Z,70.57
2023-01-21T11:08:38.492Z,69.78
2023-01-21T11:11:07.586Z,67.93
2023-01-21T11:13:35.747Z,67.16
2023-01-21T11:16:04.683Z,68.10
2023-01-21T11:18:37.227Z,66.63
2023-01-21T11:21:16.679Z,67.72
2023-01-21T11:23:55.508Z,68.52
2023-01-21T11:26:36.574Z,67.03
2023-01-21T11:29:16.647Z,67.89
2023-01-21T11:31:48.633Z,65.73
2023-01-21T11:34:22.097Z,65.27
2023-01-21T11:36:57.444Z,65.70
2023-01-21T11:39:51.949Z,66.62
2023-01-21T11:42:20.082Z,64.00
2023-01-21T11:44:54.723Z,60.33
2023-01-21T11:47:46.598Z,61.32
2023-01-21T11:50:35.398Z,62.08
2023-01-21T11:53:13.045Z,61.63
2023-01-21T11:55:51.329Z,63.85
2023-01-21T11:58:30.876Z,62.17
2023-01-21T12:01:01.154Z,60.68
2023-01-21T12:03:37.373Z,61.60
2023-01-21T12:06:07.376Z,60.83
2023-01-21T12:08:38.710Z,61.34
2023-01-21T12:11:08.229Z,62.20
2023-01-21T12:14:29.931Z,62.04
2023-01-21T12:17:26.115Z,60.64
2023-01-21T12:20:24.737Z,62.35
2023-01-21T12:23:11.233Z,60.43
2023-01-21T12:25:48.487Z,60.82
2023-01-21T12:28:17.010Z,60.42
2023-01-21T12:31:21.738Z,61.26
2023-01-21T12:34:04.208Z,59.91
2023-01-21T12:36:43.142Z,58.21
2023-01-21T12:39:17.433Z,55.22
2023-01-21T12:41:51.475Z,54.51
2023-01-21T12:44:28.853Z,52.98
2023-01-21T12:47:03.973Z,56.48
2023-01-21T12:49:58.954Z,58.42
2023-01-21T12:52:40.100Z,57.12
2023-01-21T12:55:20.105Z,57.06
2023-01-21T12:58:13.322Z,58.24
2023-01-21T13:00:48.816Z,57.45
2023-01-21T13:03:58.466Z,56.43
2023-01-21T13:06:53.964Z,53.14
2023-01-21T13:09:43.286Z,53.93
2023-01-21T13:12:21.909Z,53.96
2023-01-21T13:15:14.822Z,54.78
2023-01-21T13:17:44.747Z,55.52
2023-01-21T13:20:18.365Z,55.54
2023-01-21T13:23:12.934Z,56.07
2023-01-21T13:26:18.033Z,55.41
2023-01-21T13:29:13.581Z,55.50
2023-01-21T13:31:48.548Z,53.74
2023-01-21T13:34:38.515Z,53.60
2023-01-21T13:37:15.090Z,53.50
2023-01-21T13:40:11.252Z,54.11
2023-01-21T13:42:54.026Z,54.90
2023-01-21T13:45:36.568Z,53.71
2023-01-21T13:48:32.672Z,53.30
2023-01-21T13:51:26.564Z,52.57
2023-01-21T13:54:14.414Z,52.41
2023-01-21T13:57:15.478Z,52.73
2023-01-21T13:59:52.621Z,53.28
2023-01-21T14:02:23.112Z,53.26
2023-01-21T14:05:03.123Z,52.43
2023-01-21T14:07:39.224Z,52.35
2023-01-21T14:10:23.711Z,52.48
2023-01-21T14:13:25.258Z,51.32
2023-01-21T14:16:19.226Z,52.22
2023-01-21T14:19:11.350Z,50.97
2023-01-21T14:21:41.702Z,50.75
2023-01-21T14:24:48.280Z,51.34
2023-01-21T14:27:38.914Z,51.50
2023-01-21T14:30:06.575Z,52.33
2023-01-21T14:32:44.733Z,52.36
2023-01-21T14:35:34.265Z,51.56
2023-01-21T14:38:16.757Z,50.53
2023-01-21T14:40:49.028Z,50.13
2023-01-21T14:43:43.336Z,48.84
2023-01-21T14:46:25.933Z,49.11
2023-01-21T14:49:08.444Z,49.05
2023-01-21T14:51:44.904Z,48.58
2023-01-21T14:54:17.390Z,48.41
2023-01-21T14:57:04.121Z,48.48
2023-01-21T14:59:39.120Z,48.25
2023-01-21T15:02:30.794Z,47.37
2023-01-21T15:05:10.718Z,48.12
2023-01-21T15:07:44.895Z,49.32
2023-01-21T15:10:30.251Z,49.92
2023-01-21T15:13:00.628Z,50.77
2023-01-21T15:15:39.860Z,51.98
2023-01-21T15:18:10.154Z,52.56
2023-01-21T15:20:50.058Z,53.12
2023-01-21T15:23:30.642Z,52.77
2023-01-21T15:26:32.244Z,52.33
2023-01-21T15:29:23.667Z,53.20
2023-01-21T15:31:51.427Z,50.42
2023-01-21T15:34:20.976Z,49.96
2023-01-21T15:36:53.417Z,49.12
2023-01-21T15:39:33.521Z,50.24
2023-01-21T15:42:30.172Z,50.90
2023-01-21T15:45:16.224Z,51.22
2023-01-21T15:48:27.556Z,51.04
2023-01-21T15:51:41.789Z,50.35
2023-01-21T15:54:34.167Z,51.86
2023-01-21T15:57:14.285Z,53.11
2023-01-21T15:59:47.862Z,54.24
2023-01-21T16:02:21.490Z,55.50
2023-01-21T16:05:17.569Z,55.78
2023-01-21T16:08:08.071Z,55.64
2023-01-21T16:11:09.372Z,55.24
2023-01-21T16:14:04.483Z,53.62
2023-01-21T16:16:41.242Z,52.95
2023-01-21T16:19:30.849Z,53.48
2023-01-21T16:22:03.209Z,53.73
2023-01-21T16:24:34.071Z,53.65
2023-01-21T16:27:23.424Z,55.49
2023-01-21T16:30:02.546Z,56.08
2023-01-21T16:32:32.498Z,56.59
2023-01-21T16:35:01.091Z,57.50
2023-01-21T16:37:29.989Z,57.78
2023-01-21T16:40:20.693Z,58.92
2023-01-21T16:42:48.261Z,59.30
2023-01-21T16:45:19.417Z,60.95
2023-01-21T16:47:54.303Z,60.29
2023-01-21T16:50:25.889Z,61.56
2023-01-21T16:52:54.743Z,61.30
2023-01-21T16:55:23.212Z,62.24
2023-01-21T16:57:52.431Z,62.54
2023-01-21T17:00:32.086Z,62.33
2023-01-21T17:03:00.564Z,62.18
2023-01-21T17:05:32.903Z,62.47
2023-01-21T17:08:04.072Z,63.40
2023-01-21T17:10:39.221Z,63.68
2023-01-21T17:13:14.270Z,63.73
2023-01-21T17:15:44.458Z,64.40
2023-01-21T17:18:42.913Z,65.74
2023-01-21T17:21:19.304Z,66.30
2023-01-21T17:23:48.225Z,65.78
2023-01-21T17:26:21.412Z,66.56
2023-01-21T17:28:54.160Z,66.55
2023-01-21T17:31:26.420Z,66.79
2023-01-21T17:34:23.536Z,65.96
2023-01-21T17:36:52.613Z,64.71
2023-01-21T17:39:50.478Z,65.05
2023-01-21T17:42:25.900Z,65.95
2023-01-21T17:44:56.262Z,66.24
2023-01-21T17:47:32.901Z,66.04
2023-01-21T17:50:22.175Z,65.86
2023-01-21T17:53:03.723Z,66.62
2023-01-21T17:55:40.409Z,66.78
2023-01-21T17:58:35.944Z,67.45
2023-01-21T18:01:04.443Z,67.92
2023-01-21T18:03:32.496Z,68.35
2023-01-21T18:06:00.746Z,68.79
2023-01-21T18:08:28.538Z,69.05
2023-01-21T18:10:56.472Z,68.50
2023-01-21T18:13:24.281Z,69.38
2023-01-21T18:15:54.240Z,70.08
2023-01-21T18:18:25.911Z,69.50
2023-01-21T18:20:53.624Z,69.48
2023-01-21T18:23:21.315Z,67.10
2023-01-21T18:25:52.575Z,66.89
2023-01-21T18:28:22.468Z,66.73
2023-01-21T18:30:51.383Z,67.89
2023-01-21T18:33:19.823Z,67.36
2023-01-21T18:35:49.529Z,66.74
2023-01-21T18:38:27.540Z,67.70
2023-01-21T18:40:58.397Z,68.28
2023-01-21T18:43:26.192Z,68.54
2023-01-21T18:45:54.585Z,68.92
2023-01-21T18:48:28.792Z,69.08
2023-01-21T18:50:56.473Z,69.19
2023-01-21T18:53:23.931Z,70.05
2023-01-21T18:55:53.717Z,69.04
2023-01-21T18:58:21.269Z,69.79
2023-01-21T19:00:49.530Z,70.27
2023-01-21T19:03:17.408Z,69.57
2023-01-21T19:05:47.779Z,70.11
2023-01-21T19:08:18.336Z,70.09
2023-01-21T19:10:45.903Z,70.48
2023-01-21T19:13:13.300Z,70.91
2023-01-21T19:15:42.000Z,71.05
2023-01-21T19:18:11.474Z,70.79
2023-01-21T19:20:42.852Z,70.47
2023-01-21T19:23:16.323Z,70.83
2023-01-21T19:25:53.634Z,69.78
2023-01-21T19:28:21.496Z,70.32
2023-01-21T19:30:50.705Z,69.41
2023-01-21T19:33:18.239Z,70.07
2023-01-21T19:35:46.061Z,71.17
2023-01-21T19:38:19.290Z,71.12
2023-01-21T19:40:47.612Z,71.40
2023-01-21T19:43:16.970Z,71.12
2023-01-21T19:45:45.069Z,71.41
2023-01-21T19:48:14.291Z,71.61
2023-01-21T19:50:42.473Z,72.87
2023-01-21T19:53:15.421Z,74.01
2023-01-21T19:55:44.301Z,74.16
2023-01-21T19:58:19.709Z,75.06
2023-01-21T20:00:49.934Z,75.25
2023-01-21T20:03:19.689Z,75.70
2023-01-21T20:05:50.120Z,76.45
2023-01-21T20:08:29.161Z,76.73
2023-01-21T20:10:57.069Z,77.39
2023-01-21T20:13:24.495Z,77.45
2023-01-21T20:15:52.645Z,76.39
2023-01-21T20:18:26.891Z,74.64
2023-01-21T20:20:54.739Z,74.60
2023-01-21T20:23:23.332Z,74.47
2023-01-21T20:25:57.261Z,75.74
2023-01-21T20:28:35.195Z,75.38
2023-01-21T20:31:06.672Z,76.13
2023-01-21T20:33:36.258Z,76.40
2023-01-21T20:36:06.791Z,76.06
2023-01-21T20:38:36.105Z,74.61
2023-01-21T20:41:05.623Z,75.88
2023-01-21T20:43:34.279Z,76.46
2023-01-21T20:46:05.449Z,76.95
2023-01-21T20:48:39.279Z,77.66
2023-01-21T20:51:08.542Z,77.61
2023-01-21T20:53:36.928Z,77.45
2023-01-21T20:56:18.159Z,78.21
2023-01-21T20:58:47.932Z,79.07
2023-01-21T21:01:17.399Z,78.54
2023-01-21T21:03:45.404Z,79.23
2023-01-21T21:06:21.479Z,78.39
2023-01-21T21:08:49.879Z,76.72
2023-01-21T21:11:18.658Z,77.02
2023-01-21T21:13:48.530Z,75.92
2023-01-21T21:16:28.760Z,76.49
2023-01-21T21:18:56.852Z,78.01
2023-01-21T21:21:24.464Z,79.37
2023-01-21T21:23:53.177Z,80.28
2023-01-21T21:26:29.569Z,80.63
2023-01-21T21:28:57.901Z,80.06
2023-01-21T21:31:32.043Z,79.95
2023-01-21T21:33:59.854Z,81.20
2023-01-21T21:36:27.431Z,81.91
2023-01-21T21:38:57.716Z,82.71
2023-01-21T21:41:44.583Z,81.79
2023-01-21T21:44:12.988Z,84.35
2023-01-21T21:46:59.313Z,85.02
2023-01-21T21:49:27.409Z,85.29
2023-01-21T21:51:54.910Z,85.61
2023-01-21T21:54:23.755Z,84.01
2023-01-21T21:56:51.731Z,86.02
2023-01-21T21:59:19.520Z,86.61
2023-01-21T22:01:46.977Z,86.01
2023-01-21T22:04:14.357Z,85.76
2023-01-21T22:06:41.656Z,85.07
2023-01-21T22:09:09.542Z,84.59
2023-01-21T22:11:37.134Z,84.55
2023-01-21T22:14:04.889Z,85.74
2023-01-21T22:16:32.745Z,86.58
2023-01-21T22:19:01.291Z,87.52
2023-01-21T22:21:34.630Z,88.13
2023-01-21T22:24:03.987Z,88.67
2023-01-21T22:26:31.424Z,89.14
2023-01-21T22:28:58.821Z,89.55
2023-01-21T22:31:27.419Z,88.96
2023-01-21T22:33:55.617Z,89.21
2023-01-21T22:36:25.201Z,88.53
2023-01-21T22:38:53.061Z,85.90
2023-01-21T22:41:24.030Z,87.33
2023-01-21T22:43:52.274Z,86.74
2023-01-21T22:46:22.434Z,85.99
2023-01-21T22:48:50.173Z,86.42
2023-01-21T22:51:19.610Z,85.51
2023-01-21T22:53:47.850Z,85.64
2023-01-21T22:56:17.127Z,85.14
2023-01-21T22:58:44.879Z,85.03
2023-01-21T23:01:27.489Z,84.19
2023-01-21T23:03:55.206Z,85.39
2023-01-21T23:06:22.620Z,84.23
2023-01-21T23:08:50.577Z,85.18
2023-01-21T23:11:19.660Z,83.58
2023-01-21T23:13:49.300Z,83.76
2023-01-21T23:16:19.239Z,84.12
2023-01-21T23:18:47.436Z,83.58
2023-01-21T23:21:22.381Z,83.14
2023-01-21T23:23:50.517Z,83.50
2023-01-21T23:26:22.736Z,84.75
2023-01-21T23:28:55.334Z,85.42
2023-01-21T23:31:23.867Z,85.23
2023-01-21T23:33:52.749Z,85.81
2023-01-21T23:36:20.428Z,85.91
2023-01-21T23:38:48.045Z,86.88
2023-01-21T23:41:21.152Z,88.87
2023-01-21T23:43:48.721Z,90.11
2023-01-21T23:46:19.328Z,88.24
2023-01-21T23:48:47.584Z,89.14
2023-01-21T23:51:16.307Z,88.78
2023-01-21T23:53:44.218Z,89.68
2023-01-21T23:56:20.490Z,90.03
2023-01-21T23:58:48.772Z,87.84
